McGrath, Alaska
Current Conditions -  °F | °C
As of 2:53 AM on Thursday 27 Nov 2014 (Local Time) from PAMC Reporting Station
Scattered Clouds Scattered Clouds  
Wind Chill:   Ceiling: Unl
Heat Index:   Visibility: 10mi
Dew Point: -2°   Wind: 0mph
Humidity: 80%   Direction: NA
Pressure: 30.36"   Gusts: NA
Location:  62.96°N, 155.6°W
Report Text: PAMC 271153Z 00000KT 10SM SCT110 M16/M19 A3036 RMK AO2 SLP290 T11611189 11111 21161 58008
Loading
Personal Weather Stations






























Interactive Weather Map New forecast layout! Learn more

10-Day Weather Forecast

Advertisements
Track Severe Weather on mobile